createdAt,value
2023-03-25T00:00:17.431Z,4.15
2023-03-25T00:02:45.547Z,3.28
2023-03-25T00:05:14.768Z,3.55
2023-03-25T00:07:43.395Z,3.58
2023-03-25T00:10:11.922Z,3.58
2023-03-25T00:12:39.089Z,4.47
2023-03-25T00:15:07.572Z,3.53
2023-03-25T00:17:36.803Z,3.55
2023-03-25T00:20:10.986Z,3.95
2023-03-25T00:22:41.316Z,3.90
2023-03-25T00:25:17.327Z,4.50
2023-03-25T00:27:46.661Z,3.00
2023-03-25T00:30:15.576Z,3.97
2023-03-25T00:32:46.402Z,3.92
2023-03-25T00:35:14.018Z,5.70
2023-03-25T00:37:41.691Z,4.93
2023-03-25T00:40:08.970Z,3.40
2023-03-25T00:42:35.640Z,4.60
2023-03-25T00:45:02.444Z,4.57
2023-03-25T00:47:29.408Z,4.30
2023-03-25T00:49:56.133Z,4.55
2023-03-25T00:52:23.012Z,3.33
2023-03-25T00:54:52.637Z,4.00
2023-03-25T00:57:19.289Z,4.68
2023-03-25T00:59:45.871Z,3.63
2023-03-25T01:02:12.667Z,5.30
2023-03-25T01:04:41.496Z,4.05
2023-03-25T01:07:09.802Z,4.38
2023-03-25T01:09:36.696Z,14.05
2023-03-25T01:12:03.399Z,9.18
2023-03-25T01:14:30.303Z,4.03
2023-03-25T01:16:59.465Z,4.05
2023-03-25T01:19:26.542Z,4.68
2023-03-25T01:21:53.227Z,6.75
2023-03-25T01:24:20.283Z,10.60
2023-03-25T01:26:47.001Z,11.20
2023-03-25T01:29:16.015Z,7.40
2023-03-25T01:31:42.777Z,5.13
2023-03-25T01:34:09.934Z,7.03
2023-03-25T01:36:39.914Z,3.45
2023-03-25T01:39:08.259Z,5.88
2023-03-25T01:41:46.787Z,4.13
2023-03-25T01:44:18.590Z,4.28
2023-03-25T01:46:47.038Z,6.18
2023-03-25T01:49:21.402Z,3.25
2023-03-25T01:51:50.903Z,2.97
2023-03-25T01:54:18.051Z,5.03
2023-03-25T01:56:47.643Z,3.58
2023-03-25T01:59:18.853Z,4.22
2023-03-25T02:01:48.795Z,4.50
2023-03-25T02:04:22.760Z,3.22
2023-03-25T02:06:53.605Z,4.40
2023-03-25T02:09:24.498Z,3.88
2023-03-25T02:11:54.624Z,5.03
2023-03-25T02:14:27.057Z,4.10
2023-03-25T02:17:05.882Z,4.47
2023-03-25T02:19:42.198Z,1.95
2023-03-25T02:22:49.799Z,2.72
2023-03-25T02:25:54.890Z,5.25
2023-03-25T02:28:54.091Z,3.10
2023-03-25T02:31:45.237Z,4.93
2023-03-25T02:34:33.160Z,5.65
2023-03-25T02:37:21.549Z,5.00
2023-03-25T02:39:59.918Z,3.35
2023-03-25T02:42:39.667Z,3.75
2023-03-25T02:45:19.716Z,5.80
2023-03-25T02:47:50.587Z,4.05
2023-03-25T02:50:28.425Z,4.88
2023-03-25T02:52:59.612Z,6.18
2023-03-25T02:55:30.413Z,5.35
2023-03-25T02:57:59.235Z,4.10
2023-03-25T03:00:30.166Z,6.38
2023-03-25T03:03:05.276Z,2.97
2023-03-25T03:05:38.444Z,4.80
2023-03-25T03:08:46.765Z,3.15
2023-03-25T03:12:10.725Z,2.40
2023-03-25T03:15:09.296Z,3.95
2023-03-25T03:18:06.330Z,5.15
2023-03-25T03:20:41.009Z,3.00
2023-03-25T03:23:24.104Z,6.43
2023-03-25T03:26:08.979Z,6.53
2023-03-25T03:28:55.338Z,5.10
2023-03-25T03:32:13.595Z,3.28
2023-03-25T03:34:47.259Z,5.65
2023-03-25T03:37:18.587Z,5.43
2023-03-25T03:39:48.799Z,3.83
2023-03-25T03:42:21.957Z,5.18
2023-03-25T03:44:58.686Z,4.93
2023-03-25T03:47:30.949Z,7.75
2023-03-25T03:50:02.748Z,4.32
2023-03-25T03:52:37.498Z,6.57
2023-03-25T03:55:10.820Z,3.38
2023-03-25T03:57:52.719Z,5.13
2023-03-25T04:00:26.200Z,4.63
2023-03-25T04:03:14.598Z,2.75
2023-03-25T04:05:51.556Z,2.42
2023-03-25T04:08:34.016Z,5.60
2023-03-25T04:11:09.690Z,2.80
2023-03-25T04:13:40.246Z,1.50
2023-03-25T04:16:07.428Z,1.95
2023-03-25T04:18:34.068Z,5.22
2023-03-25T04:21:01.708Z,5.30
2023-03-25T04:23:31.878Z,2.28
2023-03-25T04:26:02.665Z,4.13
2023-03-25T04:28:29.793Z,3.17
2023-03-25T04:30:57.872Z,2.97
2023-03-25T04:33:25.132Z,6.22
2023-03-25T04:35:52.781Z,3.13
2023-03-25T04:38:20.060Z,4.10
2023-03-25T04:40:47.490Z,4.03
2023-03-25T04:43:16.167Z,4.82
2023-03-25T04:45:49.847Z,5.20
2023-03-25T04:48:23.556Z,4.78
2023-03-25T04:50:55.857Z,5.10
2023-03-25T04:53:22.751Z,5.50
2023-03-25T04:55:50.281Z,4.93
2023-03-25T04:58:17.818Z,4.32
2023-03-25T05:00:46.358Z,7.80
2023-03-25T05:03:13.246Z,6.43
2023-03-25T05:05:40.123Z,6.90
2023-03-25T05:08:07.765Z,7.18
2023-03-25T05:10:36.239Z,7.50
2023-03-25T05:13:06.405Z,7.38
2023-03-25T05:15:40.579Z,8.00
2023-03-25T05:18:12.571Z,6.80
2023-03-25T05:20:41.111Z,5.18
2023-03-25T05:23:18.275Z,7.00
2023-03-25T05:25:51.021Z,8.23
2023-03-25T05:28:18.427Z,6.63
2023-03-25T05:30:46.788Z,7.43
2023-03-25T05:33:16.427Z,5.18
2023-03-25T05:35:44.602Z,10.70
2023-03-25T05:38:18.280Z,4.43
2023-03-25T05:40:46.614Z,8.82
2023-03-25T05:43:15.030Z,8.88
2023-03-25T05:45:42.358Z,5.35
2023-03-25T05:48:09.013Z,7.45
2023-03-25T05:50:37.845Z,7.45
2023-03-25T05:53:04.762Z,6.63
2023-03-25T05:55:31.505Z,6.88
2023-03-25T05:57:58.783Z,6.95
2023-03-25T06:00:25.434Z,6.03
2023-03-25T06:02:52.298Z,4.28
2023-03-25T06:05:23.313Z,11.50
2023-03-25T06:07:50.643Z,6.65
2023-03-25T06:10:18.067Z,4.88
2023-03-25T06:12:47.303Z,4.22
2023-03-25T06:15:18.042Z,8.15
2023-03-25T06:17:47.155Z,6.28
2023-03-25T06:20:19.283Z,7.22
2023-03-25T06:22:46.530Z,4.97
2023-03-25T06:25:20.803Z,5.72
2023-03-25T06:27:49.913Z,5.82
2023-03-25T06:30:21.677Z,3.08
2023-03-25T06:32:52.367Z,6.45
2023-03-25T06:35:20.542Z,4.82
2023-03-25T06:37:48.801Z,4.05
2023-03-25T06:40:15.987Z,3.75
2023-03-25T06:42:42.576Z,5.80
2023-03-25T06:45:09.962Z,5.18
2023-03-25T06:47:36.559Z,4.20
2023-03-25T06:50:03.320Z,5.78
2023-03-25T06:52:30.244Z,4.72
2023-03-25T06:54:57.015Z,9.45
2023-03-25T06:57:23.550Z,5.65
2023-03-25T06:59:50.157Z,5.18
2023-03-25T07:02:16.940Z,5.70
2023-03-25T07:04:43.677Z,3.30
2023-03-25T07:07:11.083Z,7.35
2023-03-25T07:09:37.723Z,3.75
2023-03-25T07:12:05.866Z,5.40
2023-03-25T07:14:33.514Z,7.68
2023-03-25T07:17:00.405Z,4.20
2023-03-25T07:19:27.663Z,5.78
2023-03-25T07:21:54.740Z,4.05
2023-03-25T07:24:21.896Z,4.65
2023-03-25T07:26:48.801Z,4.35
2023-03-25T07:29:15.637Z,4.85
2023-03-25T07:31:42.293Z,3.80
2023-03-25T07:34:08.966Z,5.72
2023-03-25T07:36:35.576Z,5.07
2023-03-25T07:39:03.743Z,5.15
2023-03-25T07:41:30.560Z,3.42
2023-03-25T07:43:57.118Z,4.38
2023-03-25T07:46:23.798Z,3.53
2023-03-25T07:48:50.589Z,4.68
2023-03-25T07:51:26.206Z,6.72
2023-03-25T07:53:52.794Z,6.13
2023-03-25T07:56:19.440Z,8.00
2023-03-25T07:58:46.433Z,5.10
2023-03-25T08:01:13.478Z,5.30
2023-03-25T08:03:40.258Z,8.68
2023-03-25T08:06:08.026Z,6.28
2023-03-25T08:08:34.975Z,4.45
2023-03-25T08:11:01.834Z,3.80
2023-03-25T08:13:28.785Z,2.67
2023-03-25T08:15:56.258Z,2.28
2023-03-25T08:18:23.113Z,3.55
2023-03-25T08:20:53.481Z,2.22
2023-03-25T08:23:20.768Z,3.33
2023-03-25T08:25:49.929Z,3.53
2023-03-25T08:28:22.037Z,2.65
2023-03-25T08:30:54.578Z,3.15
2023-03-25T08:33:27.141Z,2.95
2023-03-25T08:35:56.714Z,3.35
2023-03-25T08:38:25.628Z,2.30
2023-03-25T08:40:52.621Z,3.38
2023-03-25T08:43:19.911Z,5.05
2023-03-25T08:45:46.775Z,2.35
2023-03-25T08:48:13.417Z,4.10
2023-03-25T08:50:40.482Z,5.18
2023-03-25T08:53:07.208Z,4.25
2023-03-25T08:55:33.861Z,3.90
2023-03-25T08:58:04.877Z,4.53
2023-03-25T09:00:32.457Z,4.10
2023-03-25T09:03:00.677Z,3.88
2023-03-25T09:05:27.445Z,4.35
2023-03-25T09:07:54.205Z,2.97
2023-03-25T09:10:21.085Z,2.85
2023-03-25T09:12:47.639Z,5.15
2023-03-25T09:15:14.434Z,1.38
2023-03-25T09:17:42.968Z,4.45
2023-03-25T09:20:10.651Z,3.72
2023-03-25T09:22:37.955Z,4.47
2023-03-25T09:25:06.382Z,3.60
2023-03-25T09:27:33.627Z,1.90
2023-03-25T09:30:00.340Z,3.55
2023-03-25T09:32:26.976Z,2.38
2023-03-25T09:34:53.893Z,2.25
2023-03-25T09:37:20.600Z,3.17
2023-03-25T09:39:47.212Z,5.22
2023-03-25T09:42:40.144Z,5.80
2023-03-25T09:45:31.270Z,5.03
2023-03-25T09:48:18.559Z,7.35
2023-03-25T09:50:47.007Z,4.80
2023-03-25T09:53:37.758Z,4.65
2023-03-25T09:56:10.882Z,3.70
2023-03-25T09:58:44.428Z,7.40
2023-03-25T10:01:33.253Z,7.28
2023-03-25T10:04:15.515Z,5.20
2023-03-25T10:07:01.916Z,5.88
2023-03-25T10:09:39.233Z,6.70
2023-03-25T10:12:10.956Z,6.82
2023-03-25T10:14:49.661Z,7.20
2023-03-25T10:17:26.799Z,5.28
2023-03-25T10:19:56.084Z,7.65
2023-03-25T10:22:38.537Z,6.53
2023-03-25T10:25:09.833Z,2.35
2023-03-25T10:27:41.534Z,3.13
2023-03-25T10:30:27.193Z,2.53
2023-03-25T10:32:57.275Z,2.20
2023-03-25T10:35:30.081Z,6.85
2023-03-25T10:38:13.836Z,4.13
2023-03-25T10:40:50.060Z,5.70
2023-03-25T10:43:43.488Z,3.40
2023-03-25T10:46:34.392Z,4.18
2023-03-25T10:49:01.028Z,3.10
2023-03-25T10:51:31.953Z,3.72
2023-03-25T10:53:59.525Z,8.23
2023-03-25T10:56:31.290Z,5.05
2023-03-25T10:59:02.499Z,9.48
2023-03-25T11:01:38.732Z,4.93
2023-03-25T11:04:08.233Z,7.15
2023-03-25T11:06:39.810Z,15.93
2023-03-25T11:09:26.499Z,4.85
2023-03-25T11:11:54.243Z,3.80
2023-03-25T11:14:25.210Z,3.33
2023-03-25T11:17:05.569Z,5.35
2023-03-25T11:20:07.481Z,4.30
2023-03-25T11:22:46.483Z,3.88
2023-03-25T11:25:21.197Z,8.93
2023-03-25T11:27:56.324Z,5.10
2023-03-25T11:30:27.184Z,4.90
2023-03-25T11:33:06.280Z,3.47
2023-03-25T11:35:38.061Z,7.05
2023-03-25T11:38:21.131Z,3.97
2023-03-25T11:40:54.761Z,4.80
2023-03-25T11:43:30.292Z,2.92
2023-03-25T11:45:57.026Z,3.05
2023-03-25T11:48:43.722Z,5.03
2023-03-25T11:51:25.310Z,4.68
2023-03-25T11:54:01.839Z,4.13
2023-03-25T11:56:37.849Z,4.85
2023-03-25T11:59:38.342Z,3.55
2023-03-25T12:02:37.363Z,5.00
2023-03-25T12:05:13.241Z,6.00
2023-03-25T12:07:45.505Z,4.72
2023-03-25T12:10:38.441Z,4.45
2023-03-25T12:13:38.686Z,5.25
2023-03-25T12:16:31.103Z,2.85
2023-03-25T12:19:12.177Z,7.38
2023-03-25T12:21:48.599Z,2.58
2023-03-25T12:24:25.653Z,2.08
2023-03-25T12:27:10.976Z,3.38
2023-03-25T12:30:09.714Z,3.08
2023-03-25T12:32:58.252Z,2.80
2023-03-25T12:35:56.844Z,2.17
2023-03-25T12:38:46.027Z,3.70
2023-03-25T12:41:17.749Z,1.75
2023-03-25T12:44:07.133Z,3.33
2023-03-25T12:47:11.685Z,2.35
2023-03-25T12:49:44.967Z,4.90
2023-03-25T12:52:27.780Z,5.57
2023-03-25T12:55:18.107Z,4.35
2023-03-25T12:58:06.698Z,4.40
2023-03-25T13:01:01.699Z,3.42
2023-03-25T13:03:43.399Z,4.65
2023-03-25T13:06:35.020Z,4.68
2023-03-25T13:09:27.218Z,5.55
2023-03-25T13:12:05.008Z,3.13
2023-03-25T13:14:38.713Z,3.75
2023-03-25T13:17:22.170Z,4.68
2023-03-25T13:19:49.901Z,2.75
2023-03-25T13:22:28.624Z,5.72
2023-03-25T13:24:59.236Z,5.57
2023-03-25T13:27:31.058Z,3.17
2023-03-25T13:29:59.040Z,2.65
2023-03-25T13:32:34.077Z,3.22
2023-03-25T13:35:07.556Z,4.25
2023-03-25T13:37:46.004Z,3.13
2023-03-25T13:40:24.410Z,2.95
2023-03-25T13:43:16.908Z,2.33
2023-03-25T13:45:56.068Z,4.50
2023-03-25T13:48:46.818Z,2.30
2023-03-25T13:51:13.734Z,4.10
2023-03-25T13:53:49.598Z,2.90
2023-03-25T13:56:28.852Z,5.03
2023-03-25T13:59:14.557Z,5.05
2023-03-25T14:01:58.305Z,5.63
2023-03-25T14:04:53.343Z,7.95
2023-03-25T14:07:48.040Z,4.60
2023-03-25T14:10:56.345Z,1.95
2023-03-25T14:13:36.782Z,3.45
2023-03-25T14:16:12.116Z,1.85
2023-03-25T14:18:43.899Z,6.90
2023-03-25T14:21:13.857Z,3.88
2023-03-25T14:23:42.388Z,3.80
2023-03-25T14:26:11.538Z,4.10
2023-03-25T14:28:44.272Z,5.43
2023-03-25T14:31:29.457Z,4.47
2023-03-25T14:34:02.161Z,3.50
2023-03-25T14:36:59.614Z,3.78
2023-03-25T14:39:35.070Z,2.30
2023-03-25T14:42:07.702Z,3.63
2023-03-25T14:44:42.410Z,2.03
2023-03-25T14:47:20.795Z,4.93
2023-03-25T14:49:50.542Z,3.08
2023-03-25T14:52:21.003Z,7.40
2023-03-25T14:54:53.550Z,8.43
2023-03-25T14:57:26.573Z,6.05
2023-03-25T15:00:02.378Z,3.22
2023-03-25T15:02:32.395Z,7.80
2023-03-25T15:05:14.733Z,9.93
2023-03-25T15:07:49.180Z,7.15
2023-03-25T15:10:25.597Z,5.93
2023-03-25T15:13:00.165Z,3.63
2023-03-25T15:15:51.929Z,3.42
2023-03-25T15:18:37.603Z,7.18
2023-03-25T15:21:13.940Z,4.32
2023-03-25T15:23:55.297Z,4.75
2023-03-25T15:26:32.535Z,6.03
2023-03-25T15:29:17.285Z,5.82
2023-03-25T15:32:24.496Z,10.15
2023-03-25T15:35:29.530Z,3.33
2023-03-25T15:38:03.541Z,4.70
2023-03-25T15:40:54.410Z,5.82
2023-03-25T15:44:01.179Z,7.32
2023-03-25T15:46:53.602Z,7.50
2023-03-25T15:49:36.032Z,5.60
2023-03-25T15:52:57.179Z,5.60
2023-03-25T15:55:45.890Z,6.22
2023-03-25T15:58:26.254Z,3.05
2023-03-25T16:00:59.899Z,7.28
2023-03-25T16:03:29.732Z,1.60
2023-03-25T16:06:00.667Z,3.45
2023-03-25T16:08:39.970Z,1.33
2023-03-25T16:11:22.128Z,4.15
2023-03-25T16:14:06.989Z,2.47
2023-03-25T16:16:36.264Z,4.15
2023-03-25T16:19:05.575Z,1.60
2023-03-25T16:21:33.047Z,1.88
2023-03-25T16:24:05.078Z,0.88
2023-03-25T16:26:41.522Z,1.98
2023-03-25T16:29:22.792Z,1.50
2023-03-25T16:31:56.445Z,1.25
2023-03-25T16:34:24.944Z,0.90
2023-03-25T16:36:53.164Z,1.08
2023-03-25T16:39:22.655Z,0.85
2023-03-25T16:41:51.424Z,2.60
2023-03-25T16:44:22.444Z,1.02
2023-03-25T16:46:52.460Z,1.42
2023-03-25T16:49:29.887Z,1.67
2023-03-25T16:51:58.322Z,0.68
2023-03-25T16:54:36.528Z,3.72
2023-03-25T16:57:06.841Z,2.38
2023-03-25T16:59:36.478Z,6.38
2023-03-25T17:02:23.006Z,3.53
2023-03-25T17:04:51.109Z,1.20
2023-03-25T17:07:22.582Z,4.53
2023-03-25T17:09:56.231Z,2.75
2023-03-25T17:12:27.837Z,2.05
2023-03-25T17:15:07.014Z,2.13
2023-03-25T17:17:39.129Z,3.22
2023-03-25T17:20:15.418Z,2.13
2023-03-25T17:22:54.263Z,2.78
2023-03-25T17:25:48.033Z,1.58
2023-03-25T17:28:43.166Z,4.53
2023-03-25T17:31:33.359Z,2.17
2023-03-25T17:34:08.108Z,4.32
2023-03-25T17:36:38.056Z,2.88
2023-03-25T17:39:16.132Z,4.32
2023-03-25T17:41:44.874Z,3.30
2023-03-25T17:44:16.490Z,4.75
2023-03-25T17:46:44.128Z,3.88
2023-03-25T17:49:18.848Z,1.23
2023-03-25T17:51:46.706Z,4.13
2023-03-25T17:54:14.595Z,3.72
2023-03-25T17:56:41.828Z,3.30
2023-03-25T17:59:16.533Z,4.13
2023-03-25T18:01:43.422Z,3.90
2023-03-25T18:04:12.916Z,4.63
2023-03-25T18:06:41.867Z,3.92
2023-03-25T18:09:19.957Z,3.72
2023-03-25T18:11:49.080Z,5.03
2023-03-25T18:14:16.056Z,5.35
2023-03-25T18:16:43.082Z,5.47
2023-03-25T18:19:19.050Z,5.95
2023-03-25T18:21:46.254Z,4.03
2023-03-25T18:24:13.790Z,2.38
2023-03-25T18:26:43.280Z,1.67
2023-03-25T18:29:16.862Z,3.22
2023-03-25T18:31:43.559Z,4.35
2023-03-25T18:34:12.356Z,3.28
2023-03-25T18:36:39.750Z,2.70
2023-03-25T18:39:08.325Z,4.55
2023-03-25T18:41:35.700Z,4.72
2023-03-25T18:44:02.374Z,4.45
2023-03-25T18:46:28.952Z,3.97
2023-03-25T18:48:56.976Z,5.30
2023-03-25T18:51:23.551Z,5.88
2023-03-25T18:53:50.362Z,7.05
2023-03-25T18:56:20.577Z,3.92
2023-03-25T18:58:53.151Z,3.85
2023-03-25T19:04:05.466Z,5.65
2023-03-25T19:06:39.506Z,5.90
2023-03-25T19:09:09.464Z,2.67
2023-03-25T19:11:36.422Z,5.13
2023-03-25T19:14:03.094Z,1.80
2023-03-25T19:16:36.123Z,4.55
2023-03-25T19:19:02.864Z,6.38
2023-03-25T19:21:29.388Z,3.53
2023-03-25T19:23:56.754Z,4.47
2023-03-25T19:26:23.366Z,5.68
2023-03-25T19:28:50.069Z,3.05
2023-03-25T19:31:16.758Z,5.15
2023-03-25T19:33:43.567Z,3.85
2023-03-25T19:36:15.044Z,8.38
2023-03-25T19:38:42.814Z,31.30
2023-03-25T19:41:12.893Z,32.58
2023-03-25T19:43:40.249Z,5.55
2023-03-25T19:46:07.357Z,4.20
2023-03-25T19:48:34.936Z,6.35
2023-03-25T19:51:01.717Z,8.10
2023-03-25T19:53:29.776Z,9.10
2023-03-25T19:55:57.064Z,5.72
2023-03-25T19:58:24.528Z,8.25
2023-03-25T20:00:53.089Z,5.88
2023-03-25T20:03:22.627Z,7.32
2023-03-25T20:05:56.127Z,7.40
2023-03-25T20:08:23.474Z,6.97
2023-03-25T20:10:50.245Z,10.02
2023-03-25T20:13:17.193Z,7.32
2023-03-25T20:15:44.265Z,10.27
2023-03-25T20:18:10.925Z,6.72
2023-03-25T20:20:39.974Z,8.80
2023-03-25T20:23:06.693Z,11.65
2023-03-25T20:25:33.884Z,8.75
2023-03-25T20:28:00.517Z,10.52
2023-03-25T20:30:27.747Z,9.35
2023-03-25T20:32:54.425Z,13.75
2023-03-25T20:35:22.165Z,10.40
2023-03-25T20:37:49.708Z,10.10
2023-03-25T20:40:18.300Z,10.30
2023-03-25T20:42:48.574Z,7.20
2023-03-25T20:45:17.769Z,8.20
2023-03-25T20:47:45.325Z,6.70
2023-03-25T20:50:14.573Z,10.18
2023-03-25T20:52:41.421Z,6.07
2023-03-25T20:55:09.684Z,5.22
2023-03-25T20:57:37.257Z,9.50
2023-03-25T21:00:04.921Z,9.40
2023-03-25T21:02:32.077Z,7.90
2023-03-25T21:05:01.054Z,8.20
2023-03-25T21:07:31.612Z,8.68
2023-03-25T21:09:59.175Z,8.70
2023-03-25T21:12:36.379Z,10.05
2023-03-25T21:15:09.225Z,8.90
2023-03-25T21:17:36.270Z,13.40
2023-03-25T21:20:07.653Z,9.77
2023-03-25T21:22:34.693Z,10.63
2023-03-25T21:25:01.398Z,13.80
2023-03-25T21:27:39.604Z,12.25
2023-03-25T21:30:09.627Z,10.10
2023-03-25T21:32:36.809Z,10.65
2023-03-25T21:35:03.648Z,7.32
2023-03-25T21:37:35.530Z,6.72
2023-03-25T21:40:02.198Z,8.90
2023-03-25T21:42:30.421Z,6.60
2023-03-25T21:44:59.159Z,8.50
2023-03-25T21:47:26.098Z,7.90
2023-03-25T21:49:52.783Z,9.02
2023-03-25T21:52:19.427Z,14.85
2023-03-25T21:54:48.387Z,10.70
2023-03-25T21:57:15.244Z,9.95
2023-03-25T21:59:41.906Z,11.02
2023-03-25T22:02:14.249Z,11.25
2023-03-25T22:04:41.281Z,9.63
2023-03-25T22:07:07.922Z,7.00
2023-03-25T22:09:35.031Z,9.57
2023-03-25T22:12:01.642Z,8.13
2023-03-25T22:14:28.294Z,8.38
2023-03-25T22:16:55.373Z,7.93
2023-03-25T22:19:24.516Z,11.23
2023-03-25T22:21:52.579Z,12.85
2023-03-25T22:24:19.352Z,8.48
2023-03-25T22:26:46.076Z,11.02
2023-03-25T22:29:13.451Z,12.98
2023-03-25T22:31:40.580Z,13.20
2023-03-25T22:34:12.816Z,10.70
2023-03-25T22:36:41.916Z,10.13
2023-03-25T22:39:10.284Z,11.73
2023-03-25T22:41:37.365Z,13.25
2023-03-25T22:44:04.049Z,7.68
2023-03-25T22:46:32.091Z,10.82
2023-03-25T22:48:59.771Z,13.63
2023-03-25T22:51:27.386Z,11.25
2023-03-25T22:53:54.164Z,10.73
2023-03-25T22:56:23.355Z,10.20
2023-03-25T22:58:52.955Z,11.73
2023-03-25T23:01:24.689Z,10.48
2023-03-25T23:03:53.821Z,9.40
2023-03-25T23:06:21.308Z,10.63
2023-03-25T23:08:48.715Z,13.15
2023-03-25T23:11:18.417Z,14.23
2023-03-25T23:13:47.853Z,7.38
2023-03-25T23:16:17.722Z,14.23
2023-03-25T23:18:44.321Z,9.70
2023-03-25T23:21:17.263Z,7.93
2023-03-25T23:23:52.821Z,12.75
2023-03-25T23:26:40.877Z,9.13
2023-03-25T23:29:09.699Z,8.40
2023-03-25T23:31:38.610Z,12.63
2023-03-25T23:34:08.562Z,16.35
2023-03-25T23:36:36.953Z,10.15
2023-03-25T23:39:08.736Z,8.52
2023-03-25T23:41:35.989Z,10.98
2023-03-25T23:44:03.934Z,14.75
2023-03-25T23:46:31.040Z,6.28
2023-03-25T23:49:01.976Z,6.68
2023-03-25T23:51:35.125Z,9.02
2023-03-25T23:54:02.963Z,9.80
2023-03-25T23:56:30.451Z,6.40
2023-03-25T23:58:58.623Z,8.85
